TimeCDT,TemperatureF,Dew PointF,Humidity,Sea Level PressureIn,VisibilityMPH,Wind Direction,Wind SpeedMPH,Gust SpeedMPH,PrecipitationIn,Events,Conditions,WindDirDegrees,DateUTC
12:52 AM,68.0,55.9,65,29.55,10.0,SSE,20.7,-,N/A,,Overcast,150,2013-09-26 05:52:00
1:52 AM,66.9,55.9,68,29.54,10.0,SSE,10.4,-,N/A,,Overcast,150,2013-09-26 06:52:00
2:52 AM,66.0,55.9,70,29.52,10.0,SSE,15.0,-,N/A,,Scattered Clouds,150,2013-09-26 07:52:00
3:52 AM,64.0,57.9,80,29.53,10.0,WSW,10.4,27.6,0.01,Rain,Light Rain,240,2013-09-26 08:52:00
4:52 AM,63.0,57.9,84,29.55,10.0,SSE,13.8,-,0.01,Rain,Light Rain,150,2013-09-26 09:52:00
5:02 AM,63.0,57.9,84,29.56,10.0,SE,10.4,-,0.00,Rain-Thunderstorm,Light Rain,130,2013-09-26 10:02:00
5:17 AM,63.0,57.9,84,29.57,10.0,SE,9.2,-,0.00,Rain,Light Rain,130,2013-09-26 10:17:00
5:50 AM,60.8,57.2,88,29.56,10.0,SE,6.9,-,0.00,Thunderstorm,Clear,140,2013-09-26 10:50:00
5:52 AM,60.1,57.0,90,29.54,10.0,SE,5.8,-,0.00,Thunderstorm,Clear,130,2013-09-26 10:52:00
6:05 AM,61.0,57.0,87,29.57,10.0,Calm,Calm,-,0.00,Rain,Light Rain,0,2013-09-26 11:05:00
6:52 AM,61.0,57.0,87,29.54,10.0,Calm,Calm,-,0.00,,Clear,0,2013-09-26 11:52:00
7:52 AM,60.1,57.0,90,29.54,10.0,South,3.5,-,N/A,,Clear,170,2013-09-26 12:52:00
8:52 AM,61.0,57.0,87,29.57,10.0,SW,3.5,-,N/A,,Partly Cloudy,230,2013-09-26 13:52:00
9:07 AM,62.1,57.9,86,29.58,10.0,South,5.8,-,N/A,,Mostly Cloudy,170,2013-09-26 14:07:00
9:42 AM,61.0,57.0,87,29.60,10.0,WSW,10.4,-,N/A,,Overcast,240,2013-09-26 14:42:00
9:52 AM,61.0,57.9,90,29.60,10.0,West,15.0,-,N/A,,Overcast,270,2013-09-26 14:52:00
10:23 AM,57.0,54.0,89,29.64,8.0,West,17.3,26.5,N/A,,Overcast,280,2013-09-26 15:23:00
10:52 AM,57.0,53.1,87,29.64,9.0,WNW,15.0,23.0,N/A,,Overcast,290,2013-09-26 15:52:00
11:13 AM,57.9,53.1,84,29.65,9.0,West,16.1,-,N/A,,Overcast,280,2013-09-26 16:13:00
11:49 AM,62.6,53.6,72,29.65,10.0,WNW,12.7,-,N/A,,Scattered Clouds,290,2013-09-26 16:49:00
11:52 AM,62.1,54.0,75,29.64,10.0,WNW,12.7,-,N/A,,Partly Cloudy,290,2013-09-26 16:52:00
12:32 PM,63.0,54.0,72,29.67,10.0,WNW,12.7,-,N/A,,Mostly Cloudy,290,2013-09-26 17:32:00
12:52 PM,63.0,53.1,70,29.67,10.0,NW,10.4,-,N/A,,Overcast,310,2013-09-26 17:52:00
1:52 PM,63.0,52.0,67,29.70,10.0,West,17.3,-,N/A,,Overcast,280,2013-09-26 18:52:00
2:52 PM,64.9,51.1,61,29.71,10.0,West,15.0,20.7,N/A,,Mostly Cloudy,280,2013-09-26 19:52:00
3:02 PM,66.0,51.1,59,29.73,10.0,West,16.1,20.7,N/A,,Scattered Clouds,260,2013-09-26 20:02:00
3:52 PM,66.0,48.9,54,29.73,10.0,WNW,12.7,-,N/A,,Partly Cloudy,300,2013-09-26 20:52:00
4:52 PM,66.0,48.0,52,29.75,10.0,West,16.1,-,N/A,,Clear,280,2013-09-26 21:52:00
5:52 PM,64.9,46.9,52,29.77,10.0,West,10.4,-,N/A,,Clear,280,2013-09-26 22:52:00
6:52 PM,62.1,46.0,56,29.78,10.0,NW,6.9,-,N/A,,Clear,310,2013-09-26 23:52:00
7:52 PM,59.0,45.0,60,29.83,10.0,WNW,12.7,-,N/A,,Clear,290,2013-09-27 00:52:00
8:52 PM,55.9,44.1,64,29.85,10.0,WNW,8.1,-,N/A,,Clear,300,2013-09-27 01:52:00
9:52 PM,54.0,42.1,64,29.86,10.0,WNW,9.2,-,N/A,,Clear,300,2013-09-27 02:52:00
10:52 PM,52.0,42.1,69,29.89,10.0,Calm,Calm,-,N/A,,Clear,0,2013-09-27 03:52:00
11:52 PM,51.1,41.0,68,29.90,10.0,West,12.7,-,N/A,,Clear,280,2013-09-27 04:52:00